Time;durP1;ratioP1;P1;durP2;ratioP2;P2;SDS_P1;SDS_P2;PMS_P1;PMS_P2;Temp;Humidity;BMP_temperature;BMP_pressure;BME280_temperature;BME280_humidity;BME280_pressure;Samples;Min_cycle;Max_cycle;Signal;HPM_P1;HPM_P2
2020/12/06 00:01:19;;;;;;;43.83;26.02;;;2.30;80.30;;;;;;5099476;29;20103;-79
2020/12/06 00:03:50;;;;;;;31.88;24.73;;;2.40;80.40;;;;;;5099559;29;20110;-79
2020/12/06 00:06:23;;;;;;;34.95;25.33;;;2.40;80.30;;;;;;5097569;29;20071;-80
2020/12/06 00:08:54;;;;;;;34.75;25.52;;;2.40;80.20;;;;;;5079940;29;20051;-79
2020/12/06 00:11:26;;;;;;;36.72;25.13;;;2.40;80.50;;;;;;5096930;29;20059;-79
2020/12/06 00:13:57;;;;;;;30.73;24.23;;;2.40;80.30;;;;;;5092444;29;20044;-80
2020/12/06 00:16:28;;;;;;;35.92;25.55;;;2.40;80.00;;;;;;5099724;29;20111;-80
2020/12/06 00:19:00;;;;;;;44.05;25.92;;;2.40;80.00;;;;;;5093105;29;20040;-79
2020/12/06 00:21:32;;;;;;;42.55;25.30;;;2.40;80.50;;;;;;5092096;29;20150;-80
2020/12/06 00:24:05;;;;;;;32.40;24.15;;;2.40;80.70;;;;;;5096599;29;20491;-80
2020/12/06 00:26:36;;;;;;;38.40;25.90;;;2.40;80.30;;;;;;5099114;29;20047;-79
2020/12/06 00:29:08;;;;;;;35.20;25.60;;;2.40;80.20;;;;;;5104302;28;20533;-80
2020/12/06 00:31:39;;;;;;;37.47;25.02;;;2.40;80.30;;;;;;5095411;29;20570;-80
2020/12/06 00:34:11;;;;;;;52.08;25.63;;;2.40;80.30;;;;;;5098284;29;20048;-80
2020/12/06 00:36:42;;;;;;;39.47;24.58;;;2.40;81.20;;;;;;5081666;29;20450;-79
2020/12/06 00:39:14;;;;;;;46.30;23.95;;;2.30;81.50;;;;;;5097424;29;20443;-80
2020/12/06 00:41:45;;;;;;;32.00;24.08;;;2.20;81.60;;;;;;5089386;29;20103;-80
2020/12/06 00:44:16;;;;;;;35.83;23.33;;;2.30;81.50;;;;;;5112875;28;20052;-82
2020/12/06 00:46:48;;;;;;;32.80;23.50;;;2.20;81.20;;;;;;5103598;29;20612;-81
2020/12/06 00:49:19;;;;;;;37.63;24.20;;;2.30;81.20;;;;;;5100441;29;20048;-81
2020/12/06 00:51:51;;;;;;;35.72;22.67;;;2.30;81.30;;;;;;5117463;28;20048;-81
2020/12/06 00:54:25;;;;;;;33.83;23.50;;;2.20;81.80;;;;;;5102274;29;20036;-82
2020/12/06 00:56:57;;;;;;;31.08;22.45;;;2.30;81.50;;;;;;5116309;28;20138;-81
2020/12/06 00:59:28;;;;;;;30.38;22.35;;;2.20;81.60;;;;;;5097072;29;20602;-80
2020/12/06 01:02:03;;;;;;;28.00;21.58;;;2.20;81.40;;;;;;5098970;29;20506;-80
2020/12/06 01:04:35;;;;;;;29.35;22.85;;;2.20;81.40;;;;;;5096115;29;20056;-80
2020/12/06 01:07:06;;;;;;;30.00;23.35;;;2.10;81.80;;;;;;5095902;29;20047;-81
2020/12/06 01:09:37;;;;;;;35.58;24.65;;;2.00;81.90;;;;;;5114521;29;20119;-82
2020/12/06 01:12:09;;;;;;;32.25;23.17;;;2.00;82.00;;;;;;5074658;29;20051;-81
2020/12/06 01:14:40;;;;;;;33.80;23.50;;;2.00;82.00;;;;;;5109027;29;20052;-82
2020/12/06 01:17:12;;;;;;;33.92;24.98;;;1.90;82.30;;;;;;5108599;29;20051;-81
2020/12/06 01:19:43;;;;;;;36.20;25.00;;;1.90;82.50;;;;;;5101997;29;20355;-81
2020/12/06 01:22:15;;;;;;;33.60;24.48;;;1.90;82.60;;;;;;5100409;29;20080;-81
2020/12/06 01:24:46;;;;;;;37.63;25.08;;;1.80;82.90;;;;;;5100657;29;20090;-81
2020/12/06 01:27:17;;;;;;;37.40;25.15;;;1.80;82.90;;;;;;5092306;29;20052;-81
2020/12/06 01:29:49;;;;;;;35.72;24.45;;;1.80;83.10;;;;;;5100963;29;20577;-81
2020/12/06 01:32:20;;;;;;;33.83;24.10;;;1.80;83.20;;;;;;5088134;29;20799;-79
2020/12/06 01:34:52;;;;;;;32.88;23.83;;;1.80;83.00;;;;;;5097618;29;20094;-79
2020/12/06 01:37:23;;;;;;;33.00;24.15;;;1.90;82.80;;;;;;5097208;29;20838;-79
2020/12/06 01:39:54;;;;;;;34.63;24.85;;;1.90;82.50;;;;;;5091624;29;20043;-79
2020/12/06 01:42:26;;;;;;;32.83;23.55;;;2.00;82.30;;;;;;5089040;29;20458;-79
2020/12/06 01:45:00;;;;;;;31.33;22.25;;;2.00;82.00;;;;;;5095216;29;20127;-80
2020/12/06 01:47:32;;;;;;;32.67;23.10;;;2.00;81.70;;;;;;5089849;29;20063;-86
2020/12/06 01:50:04;;;;;;;30.20;21.83;;;2.00;81.60;;;;;;5091677;29;20103;-86
2020/12/06 01:52:35;;;;;;;30.17;21.55;;;2.00;81.30;;;;;;5099736;29;20047;-87
2020/12/06 01:55:12;;;;;;;28.35;21.23;;;2.00;81.10;;;;;;5085355;29;20047;-86
2020/12/06 01:57:43;;;;;;;26.55;21.58;;;2.00;80.90;;;;;;5091187;29;20059;-81
2020/12/06 02:00:15;;;;;;;26.48;20.85;;;2.00;80.60;;;;;;5094922;29;20091;-83
2020/12/06 02:02:49;;;;;;;30.27;22.38;;;2.00;80.60;;;;;;5098686;29;20056;-82
2020/12/06 02:05:21;;;;;;;30.60;22.83;;;2.10;80.70;;;;;;5107833;28;20572;-82
2020/12/06 02:07:57;;;;;;;30.17;22.98;;;2.00;80.70;;;;;;5082057;29;20035;-82
2020/12/06 02:10:30;;;;;;;33.63;24.65;;;2.10;81.40;;;;;;5089236;29;20166;-83
2020/12/06 02:13:02;;;;;;;37.25;26.08;;;2.10;80.70;;;;;;5099508;29;20473;-82
2020/12/06 02:15:36;;;;;;;30.50;22.52;;;2.10;80.70;;;;;;5094019;29;20051;-82
2020/12/06 02:18:07;;;;;;;33.33;22.83;;;2.10;80.50;;;;;;5094253;29;20095;-82
2020/12/06 02:20:39;;;;;;;36.22;25.60;;;2.10;80.50;;;;;;5089254;29;20110;-81
2020/12/06 02:23:10;;;;;;;35.08;24.73;;;2.20;80.80;;;;;;5104160;29;20048;-83
2020/12/06 02:25:42;;;;;;;34.58;23.52;;;2.20;80.50;;;;;;5095008;29;20093;-83
2020/12/06 02:28:13;;;;;;;35.95;25.25;;;2.20;80.40;;;;;;5093448;29;20044;-83
2020/12/06 02:30:44;;;;;;;34.17;24.75;;;2.20;80.50;;;;;;5093271;29;20430;-84
2020/12/06 02:33:16;;;;;;;41.22;25.58;;;2.20;80.20;;;;;;5096526;29;20044;-84
2020/12/06 02:35:47;;;;;;;35.75;24.63;;;2.20;80.40;;;;;;5101039;29;20048;-83
2020/12/06 02:38:19;;;;;;;47.05;25.83;;;2.20;80.50;;;;;;5098729;29;20039;-82
2020/12/06 02:40:50;;;;;;;39.70;25.83;;;2.10;81.10;;;;;;5099319;29;20458;-82
2020/12/06 02:43:21;;;;;;;35.90;24.58;;;2.00;81.70;;;;;;5095587;29;20051;-83
2020/12/06 02:45:53;;;;;;;38.53;25.00;;;2.00;81.30;;;;;;5113678;28;20047;-83
2020/12/06 02:48:24;;;;;;;31.92;23.13;;;2.10;81.60;;;;;;5098197;29;20039;-83
2020/12/06 02:50:56;;;;;;;32.05;23.35;;;2.00;81.40;;;;;;5100530;29;20047;-83
2020/12/06 02:53:27;;;;;;;31.58;23.30;;;2.10;81.10;;;;;;5103331;29;20078;-83
2020/12/06 02:55:58;;;;;;;30.13;22.15;;;2.10;81.20;;;;;;5103463;29;20043;-83
2020/12/06 02:58:30;;;;;;;30.70;22.63;;;2.10;81.30;;;;;;5101884;29;20450;-83
2020/12/06 03:01:01;;;;;;;30.08;22.65;;;2.10;80.90;;;;;;5102046;28;20107;-83
2020/12/06 03:03:33;;;;;;;29.23;22.83;;;2.10;81.10;;;;;;5090835;29;20052;-83
2020/12/06 03:06:05;;;;;;;30.60;22.88;;;2.20;80.70;;;;;;5105407;29;20051;-83
2020/12/06 03:08:37;;;;;;;32.60;23.23;;;2.10;81.10;;;;;;5105968;29;20080;-82
2020/12/06 03:11:09;;;;;;;32.28;22.75;;;2.00;81.10;;;;;;5106814;29;20090;-82
2020/12/06 03:13:40;;;;;;;32.38;23.55;;;2.00;81.10;;;;;;5106967;29;20063;-82
2020/12/06 03:16:12;;;;;;;34.42;24.20;;;2.10;81.00;;;;;;5106063;29;20059;-81
2020/12/06 03:18:43;;;;;;;34.53;23.73;;;2.00;81.20;;;;;;5103325;29;20051;-81
2020/12/06 03:21:15;;;;;;;34.13;23.58;;;2.00;81.40;;;;;;5099586;29;20048;-81
2020/12/06 03:23:46;;;;;;;29.77;23.38;;;2.00;81.30;;;;;;5107179;28;20056;-81
2020/12/06 03:26:17;;;;;;;34.75;23.05;;;2.00;81.60;;;;;;5096724;29;20081;-82
2020/12/06 03:28:49;;;;;;;44.83;24.13;;;1.90;81.80;;;;;;5098150;29;20080;-81
2020/12/06 03:31:21;;;;;;;31.80;23.13;;;1.90;81.70;;;;;;5101533;29;20714;-82
2020/12/06 03:33:52;;;;;;;28.27;21.98;;;1.90;81.70;;;;;;5102887;29;20035;-82
2020/12/06 03:36:24;;;;;;;30.05;21.67;;;1.90;81.40;;;;;;5109521;29;20035;-82
2020/12/06 03:38:55;;;;;;;31.90;22.77;;;1.90;81.20;;;;;;5110338;29;20513;-81
2020/12/06 03:41:27;;;;;;;27.83;21.88;;;1.90;81.40;;;;;;5102971;29;20040;-81
2020/12/06 03:43:58;;;;;;;29.30;22.50;;;1.90;81.30;;;;;;5106381;29;20079;-81
2020/12/06 03:46:30;;;;;;;32.13;23.80;;;1.90;81.50;;;;;;5120909;28;20088;-82
2020/12/06 03:49:02;;;;;;;30.15;21.80;;;1.90;81.50;;;;;;5108691;29;20178;-81
2020/12/06 03:51:33;;;;;;;31.45;22.30;;;1.80;81.20;;;;;;5101210;29;20051;-84
2020/12/06 03:54:04;;;;;;;36.22;23.17;;;1.80;81.40;;;;;;5103273;29;20039;-85
2020/12/06 03:56:36;;;;;;;31.42;23.13;;;1.80;81.20;;;;;;5112195;28;20098;-85
2020/12/06 03:59:07;;;;;;;29.13;22.15;;;1.80;81.40;;;;;;5099808;29;20040;-84
2020/12/06 04:01:41;;;;;;;27.50;20.40;;;1.80;81.30;;;;;;5092443;29;20405;-84
2020/12/06 04:04:17;;;;;;;27.00;21.20;;;1.80;81.30;;;;;;5116620;28;20106;-83
2020/12/06 04:06:48;;;;;;;26.80;20.73;;;1.70;81.70;;;;;;5093248;29;20103;-84
2020/12/06 04:09:19;;;;;;;25.88;20.30;;;1.70;81.60;;;;;;5094758;29;20036;-84
2020/12/06 04:11:51;;;;;;;28.08;20.58;;;1.70;81.60;;;;;;5103560;28;20071;-84
2020/12/06 04:14:22;;;;;;;27.70;21.42;;;1.70;81.50;;;;;;5109116;28;20055;-84
2020/12/06 04:16:54;;;;;;;26.08;20.52;;;1.70;81.70;;;;;;5091211;29;20055;-85
2020/12/06 04:19:25;;;;;;;25.20;20.02;;;1.70;81.60;;;;;;5080650;29;20067;-84
2020/12/06 04:21:57;;;;;;;26.95;20.90;;;1.70;81.60;;;;;;5117081;28;20111;-84
2020/12/06 04:24:29;;;;;;;27.90;21.60;;;1.80;81.60;;;;;;5116364;28;20451;-85
2020/12/06 04:27:00;;;;;;;26.63;20.55;;;1.70;81.50;;;;;;5114824;28;20059;-83
2020/12/06 04:29:32;;;;;;;25.05;19.65;;;1.80;81.60;;;;;;5093353;29;20056;-83
2020/12/06 04:32:04;;;;;;;24.27;18.98;;;1.70;81.60;;;;;;5111603;28;20604;-83
2020/12/06 04:34:36;;;;;;;21.77;18.67;;;1.70;81.60;;;;;;5111905;28;20044;-84
2020/12/06 04:37:07;;;;;;;24.50;19.45;;;1.70;81.50;;;;;;5085910;29;20036;-82
2020/12/06 04:39:39;;;;;;;21.92;19.00;;;1.70;81.40;;;;;;5099052;29;20103;-84
2020/12/06 04:42:10;;;;;;;21.90;18.02;;;1.70;81.30;;;;;;5061025;29;20700;-83
2020/12/06 04:44:42;;;;;;;21.73;17.48;;;1.70;81.20;;;;;;5095606;29;20051;-84
2020/12/06 04:47:30;;;;;;;20.55;17.95;;;1.70;81.30;;;;;;5092026;29;20064;-83
2020/12/06 04:50:04;;;;;;;21.25;18.15;;;1.70;81.10;;;;;;5112147;28;20107;-83
2020/12/06 04:52:43;;;;;;;17.75;15.85;;;1.70;80.80;;;;;;5094257;29;20130;-83
2020/12/06 04:55:17;;;;;;;17.08;15.27;;;1.70;80.50;;;;;;5102023;29;20056;-83
2020/12/06 04:57:48;;;;;;;19.05;17.05;;;1.70;80.30;;;;;;5113421;28;20152;-83
2020/12/06 05:00:26;;;;;;;17.92;16.02;;;1.70;80.30;;;;;;5099726;29;20059;-83
2020/12/06 05:03:21;;;;;;;17.10;14.98;;;1.70;80.10;;;;;;5098509;29;20095;-81
2020/12/06 05:05:54;;;;;;;17.02;15.30;;;1.70;79.70;;;;;;5104177;29;20044;-83
2020/12/06 05:08:26;;;;;;;15.57;14.07;;;1.70;79.60;;;;;;5097404;29;20059;-83
2020/12/06 05:10:59;;;;;;;15.82;14.32;;;1.70;80.50;;;;;;5097324;29;20048;-83
2020/12/06 05:13:31;;;;;;;15.25;13.85;;;1.70;79.70;;;;;;5083965;29;20040;-83
2020/12/06 05:16:06;;;;;;;14.85;13.45;;;1.60;78.70;;;;;;5105208;29;20417;-82
2020/12/06 05:18:38;;;;;;;15.55;14.05;;;1.50;78.90;;;;;;5117016;28;20944;-82
2020/12/06 05:21:09;;;;;;;14.65;13.32;;;1.50;79.50;;;;;;5108560;29;20044;-83
2020/12/06 05:23:41;;;;;;;16.13;14.63;;;1.50;79.10;;;;;;5097872;29;20079;-83
2020/12/06 05:26:12;;;;;;;17.05;15.25;;;1.50;79.60;;;;;;5124300;28;20044;-83
2020/12/06 05:28:44;;;;;;;16.80;15.10;;;1.50;80.00;;;;;;5093723;29;20130;-83
2020/12/06 05:31:15;;;;;;;17.02;15.32;;;1.50;80.10;;;;;;5094656;29;20070;-83
2020/12/06 05:33:46;;;;;;;16.80;15.10;;;1.50;80.20;;;;;;5085764;29;20052;-83
2020/12/06 05:36:19;;;;;;;17.08;15.27;;;1.60;80.30;;;;;;5111121;28;20065;-83
2020/12/06 05:38:50;;;;;;;18.02;16.13;;;1.60;80.30;;;;;;5098871;29;20046;-83
2020/12/06 05:41:22;;;;;;;18.52;16.10;;;1.60;80.50;;;;;;5118722;28;20047;-83
2020/12/06 05:43:54;;;;;;;19.52;17.42;;;1.60;80.60;;;;;;5099665;29;20071;-84
2020/12/06 05:46:26;;;;;;;20.13;17.38;;;1.60;80.80;;;;;;5084285;29;20055;-83
2020/12/06 05:48:57;;;;;;;19.95;17.80;;;1.70;80.90;;;;;;5084964;29;20055;-83
2020/12/06 05:51:29;;;;;;;19.95;17.60;;;1.70;81.10;;;;;;5102160;29;20039;-83
2020/12/06 05:54:01;;;;;;;20.25;17.52;;;1.70;81.00;;;;;;5096839;29;20039;-86
2020/12/06 05:56:35;;;;;;;19.02;16.90;;;1.70;81.00;;;;;;5098041;29;20044;-85
2020/12/06 05:59:06;;;;;;;19.88;17.50;;;1.70;81.40;;;;;;5092233;29;20110;-86
2020/12/06 06:01:38;;;;;;;19.52;17.38;;;1.60;81.10;;;;;;5088903;29;20115;-86
2020/12/06 06:04:11;;;;;;;18.52;16.65;;;1.60;81.20;;;;;;5083820;29;20043;-85
2020/12/06 06:06:45;;;;;;;19.75;16.90;;;1.60;81.20;;;;;;5099128;29;20052;-86
2020/12/06 06:09:19;;;;;;;18.73;16.75;;;1.70;81.30;;;;;;5096468;29;20180;-85
2020/12/06 06:12:19;;;;;;;18.42;16.08;;;1.60;81.30;;;;;;5099155;29;20048;-85
2020/12/06 06:14:56;;;;;;;17.40;15.65;;;1.60;81.40;;;;;;5113712;28;20257;-85
2020/12/06 06:17:29;;;;;;;19.02;16.85;;;1.60;81.60;;;;;;5079471;29;20108;-85
2020/12/06 06:20:01;;;;;;;17.23;15.27;;;1.60;81.60;;;;;;5093282;29;20071;-85
2020/12/06 06:22:35;;;;;;;19.75;17.50;;;1.60;81.60;;;;;;5098369;29;20493;-85
2020/12/06 06:25:09;;;;;;;17.52;15.73;;;1.60;81.70;;;;;;5100585;29;20035;-85
2020/12/06 06:27:41;;;;;;;16.17;14.68;;;1.60;81.60;;;;;;5097271;29;20043;-84
2020/12/06 06:30:12;;;;;;;17.50;15.63;;;1.60;81.50;;;;;;5098421;29;20047;-85
2020/12/06 06:32:44;;;;;;;19.15;17.10;;;1.70;81.50;;;;;;5088384;29;20044;-85
2020/12/06 06:35:17;;;;;;;29.70;22.60;;;1.70;81.40;;;;;;5097096;29;20039;-84
2020/12/06 06:37:49;;;;;;;25.10;19.83;;;1.70;81.50;;;;;;5101444;29;20036;-84
2020/12/06 06:40:26;;;;;;;27.33;21.17;;;1.60;81.60;;;;;;5102504;29;20051;-84
2020/12/06 06:43:02;;;;;;;25.90;19.88;;;1.70;81.50;;;;;;5097875;29;20044;-84
2020/12/06 06:45:44;;;;;;;27.23;20.45;;;1.70;81.40;;;;;;5108855;29;20505;-82
2020/12/06 06:48:16;;;;;;;18.67;16.65;;;1.70;81.20;;;;;;5127006;29;20024;-82
2020/12/06 06:50:48;;;;;;;16.45;14.75;;;1.80;81.10;;;;;;5118809;29;20035;-82
2020/12/06 06:53:23;;;;;;;15.68;14.27;;;1.80;81.20;;;;;;5114832;29;20048;-82
2020/12/06 06:55:54;;;;;;;16.40;14.88;;;1.70;81.50;;;;;;5109593;29;20087;-82
2020/12/06 06:58:32;;;;;;;15.05;13.65;;;1.70;81.60;;;;;;5105521;29;20048;-81
2020/12/06 07:01:20;;;;;;;15.43;13.82;;;1.70;81.50;;;;;;5111567;29;20080;-83
2020/12/06 07:03:53;;;;;;;15.73;14.23;;;1.80;81.50;;;;;;5086993;29;20048;-84
2020/12/06 07:06:47;;;;;;;15.15;13.75;;;1.80;81.40;;;;;;5114691;28;20092;-84
2020/12/06 07:09:29;;;;;;;15.63;14.13;;;1.80;81.30;;;;;;5117619;28;22040;-80
2020/12/06 07:12:02;;;;;;;15.93;14.38;;;1.90;81.30;;;;;;5115736;28;20874;-81
2020/12/06 07:14:33;;;;;;;15.45;13.95;;;1.90;81.20;;;;;;5099737;29;20449;-77
2020/12/06 07:17:05;;;;;;;15.40;13.93;;;1.90;81.20;;;;;;5097955;29;20100;-77
2020/12/06 07:19:36;;;;;;;14.95;13.50;;;2.00;81.00;;;;;;5104458;29;20047;-76
2020/12/06 07:22:08;;;;;;;15.93;14.35;;;2.00;80.90;;;;;;5096685;29;20044;-77
2020/12/06 07:24:39;;;;;;;15.32;13.85;;;2.00;80.90;;;;;;5095172;29;20509;-78
2020/12/06 07:27:10;;;;;;;15.10;13.70;;;2.00;81.10;;;;;;5098193;29;20123;-78
2020/12/06 07:29:42;;;;;;;15.20;13.73;;;2.00;81.20;;;;;;5098532;29;20044;-80
2020/12/06 07:32:13;;;;;;;15.32;13.77;;;2.00;81.20;;;;;;5097804;29;20050;-81
2020/12/06 07:34:45;;;;;;;14.75;13.35;;;1.90;81.40;;;;;;5103004;29;20583;-82
2020/12/06 07:37:17;;;;;;;14.73;13.32;;;2.00;81.30;;;;;;5098013;29;20086;-81
2020/12/06 07:39:49;;;;;;;14.90;13.40;;;1.90;81.40;;;;;;5096427;29;20047;-82
2020/12/06 07:42:23;;;;;;;14.70;13.20;;;2.00;81.40;;;;;;5100425;29;20423;-81
2020/12/06 07:44:59;;;;;;;14.27;12.88;;;2.00;81.20;;;;;;5105118;29;20043;-81
2020/12/06 07:47:34;;;;;;;15.05;13.65;;;2.00;81.20;;;;;;5093691;29;20082;-81
2020/12/06 07:50:06;;;;;;;14.70;13.27;;;2.00;81.20;;;;;;5109268;28;20050;-81
2020/12/06 07:52:38;;;;;;;14.95;13.45;;;2.10;81.30;;;;;;5097932;29;20036;-81
2020/12/06 07:55:10;;;;;;;14.80;13.35;;;2.10;81.30;;;;;;5099481;29;20039;-81
2020/12/06 07:57:47;;;;;;;14.65;13.25;;;2.10;81.40;;;;;;5094994;29;20048;-81
2020/12/06 08:00:29;;;;;;;14.55;13.05;;;2.10;81.40;;;;;;5099478;29;20126;-82
2020/12/06 08:03:01;;;;;;;14.50;13.10;;;2.10;81.20;;;;;;5098119;29;20047;-82
2020/12/06 08:05:39;;;;;;;15.75;14.15;;;2.10;81.20;;;;;;5098390;29;20466;-81
2020/12/06 08:08:13;;;;;;;16.10;14.48;;;2.10;81.20;;;;;;5094699;29;20630;-81
2020/12/06 08:10:54;;;;;;;15.77;14.25;;;2.10;81.30;;;;;;5092142;29;20059;-81
2020/12/06 08:13:26;;;;;;;16.63;14.95;;;2.20;81.20;;;;;;5098536;29;20043;-81
2020/12/06 08:16:08;;;;;;;17.80;15.02;;;2.20;81.20;;;;;;5094679;29;20047;-81
2020/12/06 08:18:39;;;;;;;19.95;16.65;;;2.10;81.60;;;;;;5114379;28;20051;-80
2020/12/06 08:21:11;;;;;;;21.48;18.05;;;2.00;81.60;;;;;;5098099;29;20044;-81
2020/12/06 08:23:42;;;;;;;18.92;16.92;;;2.00;81.90;;;;;;5096189;29;20083;-82
2020/12/06 08:26:14;;;;;;;17.90;16.08;;;2.00;82.00;;;;;;5112099;28;20036;-82
2020/12/06 08:28:54;;;;;;;17.95;16.05;;;2.00;81.70;;;;;;5095038;29;20040;-81
2020/12/06 08:31:26;;;;;;;18.92;16.92;;;2.10;81.60;;;;;;5096413;29;20059;-82
2020/12/06 08:34:14;;;;;;;18.20;16.25;;;2.10;81.80;;;;;;5096943;29;20040;-80
2020/12/06 08:36:48;;;;;;;19.58;16.90;;;2.20;81.20;;;;;;5097727;29;20103;-81
2020/12/06 08:39:21;;;;;;;20.63;17.67;;;2.10;81.30;;;;;;5111634;28;20036;-83
2020/12/06 08:41:52;;;;;;;19.48;16.58;;;1.90;81.90;;;;;;5097326;29;20051;-81
2020/12/06 08:44:24;;;;;;;20.90;17.40;;;1.90;82.70;;;;;;5119899;28;20406;-81
2020/12/06 08:46:55;;;;;;;19.80;17.35;;;2.00;82.30;;;;;;5099353;29;20054;-79
2020/12/06 08:49:27;;;;;;;20.83;16.10;;;2.00;82.20;;;;;;5111218;28;20740;-78
2020/12/06 08:51:58;;;;;;;23.67;17.63;;;2.00;82.20;;;;;;5115009;28;20411;-79
2020/12/06 08:54:33;;;;;;;19.95;16.92;;;2.00;82.20;;;;;;5112410;28;20468;-82
2020/12/06 08:57:07;;;;;;;24.15;19.13;;;2.00;82.40;;;;;;5104253;29;20107;-79
2020/12/06 08:59:40;;;;;;;23.27;18.55;;;2.00;82.10;;;;;;5098672;29;20743;-82
2020/12/06 09:02:21;;;;;;;20.50;18.27;;;2.00;82.20;;;;;;5094540;29;20047;-81
2020/12/06 09:04:52;;;;;;;19.17;16.75;;;2.10;82.50;;;;;;5095689;29;20048;-78
2020/12/06 09:07:26;;;;;;;21.00;16.98;;;2.20;82.70;;;;;;5096751;29;20051;-79
2020/12/06 09:09:57;;;;;;;19.67;16.65;;;2.40;81.70;;;;;;5096338;29;20115;-82
2020/12/06 09:12:31;;;;;;;19.05;16.08;;;2.50;81.60;;;;;;5094715;29;20047;-82
2020/12/06 09:15:06;;;;;;;19.52;16.80;;;2.50;81.20;;;;;;5106194;28;20556;-84
2020/12/06 09:17:38;;;;;;;18.67;16.10;;;2.60;80.40;;;;;;5101078;29;20421;-82
2020/12/06 09:20:11;;;;;;;19.90;16.80;;;2.50;81.10;;;;;;5103950;29;20444;-82
2020/12/06 09:22:43;;;;;;;18.00;15.90;;;2.60;81.40;;;;;;5067830;28;20119;-79
2020/12/06 09:25:14;;;;;;;18.80;16.08;;;2.70;81.30;;;;;;5096836;29;20425;-83
2020/12/06 09:27:46;;;;;;;19.45;17.45;;;2.80;81.40;;;;;;5096118;29;20395;-82
2020/12/06 09:30:17;;;;;;;18.38;16.05;;;2.80;81.10;;;;;;5096328;29;20044;-79
2020/12/06 09:32:49;;;;;;;18.30;16.40;;;2.80;79.80;;;;;;5098277;28;20055;-79
2020/12/06 09:35:20;;;;;;;19.23;17.10;;;2.80;80.40;;;;;;5095142;29;20096;-76
2020/12/06 09:37:51;;;;;;;17.67;15.85;;;2.80;80.30;;;;;;5099612;29;20469;-76
2020/12/06 09:40:23;;;;;;;18.85;16.95;;;2.70;80.50;;;;;;5093868;29;20055;-76
2020/12/06 09:42:54;;;;;;;16.65;14.95;;;2.80;81.60;;;;;;5097646;29;20056;-79
2020/12/06 09:45:26;;;;;;;18.08;16.17;;;2.90;81.00;;;;;;5096270;29;20585;-78
2020/12/06 09:48:01;;;;;;;18.48;16.55;;;3.00;81.00;;;;;;5112525;28;20079;-78
2020/12/06 09:50:33;;;;;;;19.73;17.73;;;3.10;80.80;;;;;;5092617;29;20056;-82
2020/12/06 09:53:08;;;;;;;18.25;16.40;;;3.20;80.30;;;;;;5092695;29;20039;-79
2020/12/06 09:55:40;;;;;;;19.77;16.63;;;3.20;79.70;;;;;;5097406;29;20052;-79
2020/12/06 09:58:11;;;;;;;18.33;16.42;;;3.30;80.20;;;;;;5113138;28;20819;-78
2020/12/06 10:00:43;;;;;;;17.50;15.68;;;3.30;79.80;;;;;;5095881;29;20099;-78
2020/12/06 10:03:14;;;;;;;17.73;15.93;;;3.30;80.30;;;;;;5081728;29;20043;-78
2020/12/06 10:05:46;;;;;;;18.15;16.25;;;3.40;80.10;;;;;;5096391;29;20526;-81
2020/12/06 10:08:18;;;;;;;17.00;15.40;;;3.50;79.80;;;;;;5095674;29;20132;-77
2020/12/06 10:10:50;;;;;;;17.40;15.70;;;3.50;80.20;;;;;;5096579;29;20073;-78
2020/12/06 10:13:21;;;;;;;17.48;15.68;;;3.50;79.10;;;;;;5114054;28;20769;-78
2020/12/06 10:15:52;;;;;;;16.75;15.05;;;3.60;79.00;;;;;;5105158;29;20044;-82
2020/12/06 10:18:24;;;;;;;17.05;15.35;;;3.60;79.10;;;;;;5094540;29;20047;-82
2020/12/06 10:20:55;;;;;;;15.82;14.23;;;3.70;78.40;;;;;;5098203;29;20082;-83
2020/12/06 10:23:27;;;;;;;15.48;13.98;;;3.70;78.80;;;;;;5095175;29;20534;-83
2020/12/06 10:25:59;;;;;;;19.08;17.10;;;3.70;78.40;;;;;;5097431;29;20056;-82
2020/12/06 10:28:31;;;;;;;20.70;18.52;;;3.80;78.30;;;;;;5095835;29;20047;-85
2020/12/06 10:31:03;;;;;;;23.00;20.60;;;3.80;78.40;;;;;;5097276;29;20098;-86
2020/12/06 10:33:34;;;;;;;21.98;19.60;;;3.90;78.70;;;;;;5114157;28;20638;-77
2020/12/06 10:36:06;;;;;;;20.00;17.90;;;3.90;78.90;;;;;;5090827;29;20044;-77
2020/12/06 10:38:37;;;;;;;20.63;18.48;;;3.90;78.30;;;;;;5096459;29;20047;-76
2020/12/06 10:41:12;;;;;;;18.88;16.85;;;3.90;78.20;;;;;;5095415;28;20055;-77
2020/12/06 10:43:43;;;;;;;19.20;17.23;;;3.90;77.70;;;;;;5083317;29;20076;-82
2020/12/06 10:46:15;;;;;;;18.45;16.55;;;3.90;78.10;;;;;;5106987;28;20048;-79
2020/12/06 10:48:46;;;;;;;19.65;17.48;;;3.90;78.00;;;;;;5083326;29;20087;-79
2020/12/06 10:51:18;;;;;;;17.30;15.60;;;3.90;77.70;;;;;;5093838;29;20403;-79
2020/12/06 10:53:49;;;;;;;17.50;15.73;;;3.90;77.10;;;;;;5097151;29;20558;-80
2020/12/06 10:56:21;;;;;;;19.38;17.38;;;3.90;77.40;;;;;;5094037;28;20138;-77
2020/12/06 10:58:53;;;;;;;18.45;16.50;;;3.90;77.80;;;;;;5098935;29;20050;-81
2020/12/06 11:01:29;;;;;;;18.20;16.30;;;3.90;77.60;;;;;;5110000;28;20532;-80
2020/12/06 11:04:02;;;;;;;17.58;15.85;;;4.00;78.10;;;;;;5091804;29;20732;-79
2020/12/06 11:06:34;;;;;;;18.35;16.45;;;4.00;77.90;;;;;;5092954;29;20044;-80
2020/12/06 11:09:06;;;;;;;17.35;15.55;;;4.00;78.20;;;;;;5094797;29;20040;-81
2020/12/06 11:11:38;;;;;;;19.40;17.40;;;4.00;77.70;;;;;;5097105;29;20530;-79
2020/12/06 11:14:09;;;;;;;16.98;15.27;;;4.00;76.90;;;;;;5090651;29;20066;-79
2020/12/06 11:16:41;;;;;;;16.33;14.73;;;4.00;77.00;;;;;;5095943;28;20326;-81
2020/12/06 11:19:12;;;;;;;15.60;14.02;;;4.00;77.10;;;;;;5097429;29;20048;-77
2020/12/06 11:21:43;;;;;;;15.70;14.20;;;4.00;76.90;;;;;;5094149;28;20055;-80
2020/12/06 11:24:15;;;;;;;16.63;15.02;;;3.90;77.30;;;;;;5093675;29;20091;-81
2020/12/06 11:26:47;;;;;;;14.63;13.15;;;3.90;77.10;;;;;;5095846;29;20059;-80
2020/12/06 11:29:18;;;;;;;14.68;13.27;;;3.80;77.20;;;;;;5093901;29;20047;-82
2020/12/06 11:31:50;;;;;;;14.57;13.20;;;3.80;77.70;;;;;;5092571;29;20048;-81
2020/12/06 11:34:21;;;;;;;15.05;13.65;;;3.80;77.90;;;;;;5097427;29;20114;-80
2020/12/06 11:36:53;;;;;;;14.18;12.80;;;3.80;78.30;;;;;;5108355;28;20043;-80
2020/12/06 11:39:24;;;;;;;15.25;13.85;;;3.80;77.80;;;;;;5093295;29;20043;-80
2020/12/06 11:41:56;;;;;;;15.45;13.95;;;3.90;78.10;;;;;;5110786;28;20418;-81
2020/12/06 11:44:27;;;;;;;15.65;14.15;;;3.90;78.20;;;;;;5104745;28;20040;-81
2020/12/06 11:46:59;;;;;;;15.48;14.07;;;4.00;78.00;;;;;;5095968;29;20051;-81
2020/12/06 11:49:31;;;;;;;15.57;14.10;;;4.00;77.60;;;;;;5095411;29;20469;-79
2020/12/06 11:52:07;;;;;;;15.63;14.02;;;4.00;77.70;;;;;;5096581;29;20054;-79
2020/12/06 11:54:39;;;;;;;14.98;13.55;;;4.10;77.80;;;;;;5098194;29;20047;-83
2020/12/06 11:57:10;;;;;;;15.27;13.82;;;4.10;77.70;;;;;;5098829;29;20054;-83
2020/12/06 11:59:42;;;;;;;15.07;13.57;;;4.10;77.70;;;;;;5096862;29;20044;-82
2020/12/06 12:02:13;;;;;;;13.88;12.68;;;4.10;77.80;;;;;;5095415;29;20051;-81
2020/12/06 12:04:45;;;;;;;14.90;13.60;;;4.10;77.60;;;;;;5100204;29;20102;-82
2020/12/06 12:07:18;;;;;;;14.35;13.05;;;4.10;77.60;;;;;;5096604;29;20055;-81
2020/12/06 12:09:50;;;;;;;14.27;12.98;;;4.10;77.50;;;;;;5097805;29;20048;-81
2020/12/06 12:12:21;;;;;;;13.25;12.05;;;4.10;77.80;;;;;;5099568;29;20052;-81
2020/12/06 12:14:53;;;;;;;12.23;11.23;;;4.10;77.80;;;;;;5098317;29;20414;-80
2020/12/06 12:17:25;;;;;;;12.85;11.75;;;4.10;77.30;;;;;;5099499;28;20051;-83
2020/12/06 12:19:56;;;;;;;12.70;11.60;;;4.20;77.40;;;;;;5095404;29;20639;-80
2020/12/06 12:22:28;;;;;;;13.60;12.25;;;4.20;77.00;;;;;;5098283;29;20052;-81
2020/12/06 12:25:00;;;;;;;13.23;12.05;;;4.20;76.80;;;;;;5116101;28;20545;-81
2020/12/06 12:27:34;;;;;;;12.43;11.32;;;4.20;76.10;;;;;;5100400;29;20047;-80
2020/12/06 12:30:07;;;;;;;13.10;11.98;;;4.20;76.40;;;;;;5096271;28;20123;-80
2020/12/06 12:32:38;;;;;;;13.40;12.20;;;4.20;76.90;;;;;;5078062;29;20046;-77
2020/12/06 12:35:10;;;;;;;14.20;12.90;;;4.10;77.50;;;;;;5097652;29;20616;-79
2020/12/06 12:37:41;;;;;;;13.70;12.50;;;4.10;78.10;;;;;;5098493;29;20067;-77
2020/12/06 12:40:12;;;;;;;14.63;13.32;;;4.00;77.80;;;;;;5097633;29;20044;-79
2020/12/06 12:42:44;;;;;;;15.98;14.50;;;4.00;78.30;;;;;;5109523;28;20051;-76
2020/12/06 12:45:16;;;;;;;15.27;13.90;;;4.00;78.00;;;;;;5096085;29;20051;-79
2020/12/06 12:47:47;;;;;;;15.35;14.05;;;4.00;78.40;;;;;;5099168;29;20044;-79
2020/12/06 12:50:20;;;;;;;40.88;36.13;;;4.00;78.10;;;;;;5098289;29;20054;-76
2020/12/06 12:52:51;;;;;;;16.02;14.52;;;3.90;77.90;;;;;;5093885;29;20087;-75
2020/12/06 12:55:23;;;;;;;15.10;13.68;;;3.90;78.40;;;;;;5093920;29;20048;-77
2020/12/06 12:57:55;;;;;;;15.52;14.13;;;3.80;77.50;;;;;;5077749;29;20052;-76
2020/12/06 13:00:26;;;;;;;14.70;13.40;;;3.80;78.30;;;;;;5094115;29;20099;-74
2020/12/06 13:02:58;;;;;;;16.02;14.63;;;3.70;78.10;;;;;;5115959;28;20043;-77